Weather


ICAO METAR
KAPA KAPA 080753Z 26004KT 10SM FEW200 20/M02 A3011 RMK AO2 SLP106 T02001022
KASE KASE 080753Z AUTO 20007KT 10SM CLR 12/M05 A3036 RMK AO2 SLP146 T01171050
KBJC KBJC 080754Z AUTO 33012KT 10SM CLR 27/M07 A3009 RMK AO2
KBKF KBKF 080758Z 28005KT 10SM FEW220 20/00 A3009 RMK AO2A SLP100 T01951005
KCFO KCFO 080748Z AUTO 27010KT 10SM CLR 19/02 A3007 RMK AO2 T01900018
KCOS KCOS 080754Z 02010KT 10SM FEW170 16/04 A3016 RMK AO2 SLP113 T01610044
KCPR KCPR 080753Z AUTO 36008KT 10SM CLR 18/08 A3010 RMK AO2 SLP111 T01780083
KCYS KCYS 080753Z AUTO 30004KT 10SM CLR 18/M04 A3012 RMK AO2 SLP096 T01781044
KDEN KDEN 080753Z 30011KT 10SM FEW200 23/M01 A3006 RMK AO2 SLP077 T02331006
KEGE KEGE 080756Z AUTO 00000KT 10SM CLR 12/M08 A3030 RMK AO2 SLP192 T01221078 PNO $
KFCS KFCS 080758Z AUTO 33008KT 10SM CLR 16/04 A3011 RMK AO2 SLP127 T01610042 $
KFMN KFMN 080753Z AUTO 00000KT 10SM CLR 23/03 A3019 RMK AO2 SLP147 T02280033
KGCC KGCC 080753Z AUTO 07005KT 10SM CLR 23/08 A3001 RMK AO2 TSE03 SLP102 T02280078 $
KGJT KGJT 080753Z AUTO 12010KT 10SM CLR 19/M12 A3010 RMK AO2 SLP113 T01941117
KGUR KGUR 080758Z AUTO 00000KT 10SM SCT170 17/09 A3001 RMK AO2 SLP106 T01670094
KPUB KPUB 080753Z AUTO 27007KT 10SM CLR 17/04 A3001 RMK AO2 SLP086 T01720044
KRAP KRAP 080752Z AUTO 33016KT 10SM CLR 22/12 A2994 RMK AO2 SLP105 T02170122 $
KRCA KRCA 080756Z AUTO 33019G23KT 10SM CLR 23/12 A2994 RMK AO2 LTG DSNT SE SLP108 T02290122 $

Surface Data
Click here.

This is a composite map contain the following analyses: radar summary (color filled areas), surface data plot (composite station model), frontal locations (in various bold lines) and pressure contours (in thin blue lines).